Time;durP1;ratioP1;P1;durP2;ratioP2;P2;SDS_P1;SDS_P2;PMS_P1;PMS_P2;Temp;Humidity;BMP_temperature;BMP_pressure;BME280_temperature;BME280_humidity;BME280_pressure;Samples;Min_cycle;Max_cycle;Signal;HPM_P1;HPM_P2
2022/05/07 00:00:59;;;;;;;11.05;6.88;;;;;;;15.28;100.00;101770.56;4901052;29;20438;-74
2022/05/07 00:03:45;;;;;;;12.30;7.32;;;;;;;15.10;100.00;101770.03;4901584;29;20036;-74
2022/05/07 00:06:31;;;;;;;9.70;6.68;;;;;;;15.24;100.00;101773.28;4900815;29;20430;-74
2022/05/07 00:09:17;;;;;;;11.18;6.72;;;;;;;15.14;100.00;101771.72;4901763;29;20091;-74
2022/05/07 00:12:04;;;;;;;10.20;6.40;;;;;;;15.14;100.00;101775.22;4901305;29;20037;-74
2022/05/07 00:14:50;;;;;;;9.38;6.80;;;;;;;15.14;100.00;101771.72;4900837;29;20378;-74
2022/05/07 00:20:40;;;;;;;11.45;6.65;;;;;;;15.15;100.00;101765.53;4900578;29;20041;-74
2022/05/07 00:23:26;;;;;;;14.15;7.20;;;;;;;15.00;100.00;101769.34;4900862;29;20040;-73
2022/05/07 00:26:11;;;;;;;10.38;6.85;;;;;;;15.12;100.00;101769.13;4901277;29;20450;-73
2022/05/07 00:28:57;;;;;;;11.95;6.70;;;;;;;14.55;100.00;101770.16;4901134;29;20355;-73
2022/05/07 00:31:43;;;;;;;11.45;7.75;;;;;;;14.82;100.00;101764.38;4900501;29;20446;-73
2022/05/07 00:34:28;;;;;;;12.77;7.40;;;;;;;14.99;100.00;101767.56;4901409;29;20069;-74
2022/05/07 00:37:14;;;;;;;10.85;6.85;;;;;;;14.39;100.00;101760.78;4900857;29;20032;-74
2022/05/07 00:40:00;;;;;;;14.00;7.25;;;;;;;14.52;100.00;101765.78;4901876;29;20362;-73
2022/05/07 00:42:46;;;;;;;11.32;7.30;;;;;;;14.45;100.00;101766.81;4900687;29;20032;-73
2022/05/07 00:45:32;;;;;;;11.10;7.30;;;;;;;14.49;100.00;101760.59;4901491;29;20036;-73
2022/05/07 00:48:17;;;;;;;11.07;7.15;;;;;;;13.55;100.00;101760.22;4899717;29;20474;-73
2022/05/07 00:54:10;;;;;;;13.38;7.40;;;;;;;13.21;100.00;101760.66;4900095;29;20025;-74
2022/05/07 00:56:55;;;;;;;12.25;7.93;;;;;;;13.68;100.00;101751.28;4899183;29;20035;-73
2022/05/07 00:59:42;;;;;;;10.45;7.35;;;;;;;13.41;100.00;101756.91;4900140;29;20093;-74
2022/05/07 01:02:28;;;;;;;12.07;8.48;;;;;;;13.23;100.00;101759.75;4901293;29;20426;-74
2022/05/07 01:05:13;;;;;;;11.70;7.47;;;;;;;13.13;100.00;101755.50;4900847;29;20033;-74
2022/05/07 01:08:00;;;;;;;14.00;8.05;;;;;;;12.99;100.00;101762.66;4900156;29;20087;-73
2022/05/07 01:10:47;;;;;;;13.75;8.60;;;;;;;13.11;100.00;101762.50;4926163;29;20431;-73
2022/05/07 01:13:34;;;;;;;10.07;7.30;;;;;;;12.91;100.00;101764.44;4899828;29;20059;-73
2022/05/07 01:16:20;;;;;;;11.48;7.88;;;;;;;13.00;100.00;101758.25;4900450;29;20036;-74
2022/05/07 01:19:06;;;;;;;13.35;8.43;;;;;;;13.31;100.00;101767.56;4900016;29;20060;-73
2022/05/07 01:21:51;;;;;;;13.57;8.80;;;;;;;13.60;100.00;101757.53;4900439;29;20032;-73
2022/05/07 01:24:37;;;;;;;12.80;8.27;;;;;;;13.56;100.00;101774.25;4899947;29;20381;-73
2022/05/07 01:27:23;;;;;;;11.55;7.82;;;;;;;13.85;100.00;101761.56;4898938;29;20024;-74
2022/05/07 01:30:09;;;;;;;9.70;7.75;;;;;;;13.49;100.00;101770.84;4913051;29;20040;-74
2022/05/07 01:32:55;;;;;;;11.68;7.85;;;;;;;13.75;100.00;101766.09;4899722;29;20402;-74
2022/05/07 01:35:41;;;;;;;9.13;7.22;;;;;;;13.47;100.00;101761.22;4899639;29;20047;-74
2022/05/07 01:38:27;;;;;;;10.88;7.82;;;;;;;13.37;100.00;101754.31;4898349;29;20126;-73
2022/05/07 01:41:13;;;;;;;10.90;7.40;;;;;;;13.44;100.00;101759.50;4899666;29;20458;-74
2022/05/07 01:43:59;;;;;;;12.00;7.82;;;;;;;13.77;100.00;101747.63;4911928;29;20035;-74
2022/05/07 01:49:49;;;;;;;17.77;8.10;;;;;;;13.49;100.00;101754.16;4899035;29;20040;-74
2022/05/07 01:52:35;;;;;;;16.10;7.93;;;;;;;13.55;100.00;101762.00;4900467;29;20043;-73
2022/05/07 01:55:21;;;;;;;12.63;7.72;;;;;;;13.34;100.00;101764.91;4899452;29;20029;-73
2022/05/07 01:58:07;;;;;;;12.90;7.97;;;;;;;13.55;100.00;101754.94;4912983;29;20103;-74
2022/05/07 02:00:52;;;;;;;13.80;8.05;;;;;;;13.44;100.00;101758.63;4899488;29;20028;-73
2022/05/07 02:03:38;;;;;;;12.23;8.20;;;;;;;13.69;100.00;101752.13;4899110;29;20043;-73
2022/05/07 02:06:24;;;;;;;14.40;8.43;;;;;;;13.50;100.00;101759.41;4912460;29;20484;-73
2022/05/07 02:09:10;;;;;;;11.88;8.27;;;;;;;13.54;100.00;101758.47;4899330;29;20378;-73
2022/05/07 02:11:56;;;;;;;13.52;8.95;;;;;;;13.14;100.00;101753.75;4899814;29;20430;-73
2022/05/07 02:14:41;;;;;;;13.95;8.55;;;;;;;13.44;100.00;101754.25;4898833;29;20053;-74
2022/05/07 02:17:27;;;;;;;14.48;8.48;;;;;;;13.64;100.00;101739.06;4898943;29;20036;-73
2022/05/07 02:20:13;;;;;;;11.95;8.52;;;;;;;13.52;100.00;101746.22;4899020;29;20036;-74
2022/05/07 02:22:58;;;;;;;14.25;9.25;;;;;;;13.60;100.00;101741.72;4899030;29;20080;-73
2022/05/07 02:25:44;;;;;;;16.88;9.00;;;;;;;13.38;100.00;101741.13;4924418;29;20081;-73
2022/05/07 02:28:30;;;;;;;17.75;9.30;;;;;;;13.29;100.00;101746.53;4898564;29;20088;-73
2022/05/07 02:31:16;;;;;;;12.27;9.02;;;;;;;13.51;100.00;101745.34;4912095;29;20463;-73
2022/05/07 02:34:01;;;;;;;11.55;8.68;;;;;;;13.45;100.00;101744.56;4911940;29;20039;-73
2022/05/07 02:36:47;;;;;;;13.18;9.07;;;;;;;13.25;100.00;101742.19;4911537;29;20032;-73
2022/05/07 02:39:33;;;;;;;15.18;9.30;;;;;;;13.06;100.00;101743.28;4898886;29;20477;-73
2022/05/07 02:42:36;;;;;;;13.02;9.60;;;;;;;12.70;100.00;101738.38;4898011;29;20024;-74
2022/05/07 02:45:22;;;;;;;15.23;9.48;;;;;;;12.71;100.00;101747.16;4924290;29;20483;-73
2022/05/07 02:48:08;;;;;;;14.18;9.40;;;;;;;12.67;100.00;101743.69;4898942;29;20049;-73
2022/05/07 02:50:54;;;;;;;13.45;9.10;;;;;;;12.60;100.00;101741.13;4910878;29;20123;-73
2022/05/07 02:53:40;;;;;;;21.30;11.48;;;;;;;12.53;100.00;101744.69;4898772;29;20039;-73
2022/05/07 02:56:26;;;;;;;18.85;10.35;;;;;;;12.63;100.00;101743.72;4898806;29;20036;-73
2022/05/07 02:59:11;;;;;;;22.80;10.43;;;;;;;12.81;100.00;101740.91;4898439;29;20028;-74
2022/05/07 03:01:57;;;;;;;17.48;9.32;;;;;;;12.73;100.00;101737.47;4899556;29;20033;-74
2022/05/07 03:04:43;;;;;;;15.27;9.68;;;;;;;12.80;100.00;101744.41;4898483;29;20123;-74
2022/05/07 03:07:29;;;;;;;16.05;10.27;;;;;;;12.46;100.00;101750.91;4898049;29;20477;-74
2022/05/07 03:10:15;;;;;;;21.02;11.05;;;;;;;12.52;100.00;101745.56;4912513;29;20077;-73
2022/05/07 03:13:00;;;;;;;14.80;9.52;;;;;;;12.60;100.00;101751.63;4899264;29;20366;-73
2022/05/07 03:15:46;;;;;;;18.42;9.95;;;;;;;12.57;100.00;101749.00;4898739;29;20134;-73
2022/05/07 03:18:32;;;;;;;17.25;9.82;;;;;;;12.45;100.00;101743.88;4898322;29;20024;-73
2022/05/07 03:21:18;;;;;;;17.52;9.35;;;;;;;12.35;100.00;101743.09;4898195;29;20029;-73
2022/05/07 03:24:04;;;;;;;16.60;9.73;;;;;;;12.05;100.00;101745.09;4898306;29;20462;-73
2022/05/07 03:26:50;;;;;;;19.63;9.60;;;;;;;12.16;100.00;101753.75;4897764;29;20369;-73
2022/05/07 03:29:36;;;;;;;16.45;9.80;;;;;;;12.24;100.00;101750.19;4898793;29;20032;-73
2022/05/07 03:32:22;;;;;;;16.13;10.15;;;;;;;12.23;100.00;101750.19;4898276;29;20032;-73
2022/05/07 03:35:08;;;;;;;16.15;9.85;;;;;;;12.40;100.00;101754.44;4899430;29;20039;-73
2022/05/07 03:37:54;;;;;;;17.95;9.82;;;;;;;12.34;100.00;101758.88;4911170;29;20029;-74
2022/05/07 03:40:39;;;;;;;17.83;9.65;;;;;;;12.06;100.00;101757.34;4898820;29;20092;-74
2022/05/07 03:43:25;;;;;;;17.75;10.68;;;;;;;11.88;100.00;101752.19;4898039;29;20357;-73
2022/05/07 03:46:11;;;;;;;17.88;9.98;;;;;;;12.27;100.00;101758.06;4898714;29;20051;-73
2022/05/07 03:48:57;;;;;;;20.48;10.40;;;;;;;12.47;100.00;101757.88;4896797;29;20043;-74
2022/05/07 03:54:47;;;;;;;19.63;9.80;;;;;;;12.67;100.00;101766.47;4902153;29;20021;-74
2022/05/07 03:57:33;;;;;;;15.45;9.75;;;;;;;12.43;100.00;101770.19;4901564;29;20129;-74
2022/05/07 04:00:19;;;;;;;15.75;9.98;;;;;;;12.33;100.00;101776.41;4900958;29;20023;-73
2022/05/07 04:03:05;;;;;;;17.80;9.73;;;;;;;12.79;100.00;101772.50;4902238;29;20454;-74
2022/05/07 04:05:52;;;;;;;18.83;9.27;;;;;;;12.26;100.00;101776.47;4902041;29;20043;-74
2022/05/07 04:08:38;;;;;;;15.27;9.18;;;;;;;12.16;100.00;101783.53;4901393;29;20505;-74
2022/05/07 04:11:23;;;;;;;16.13;9.30;;;;;;;12.48;100.00;101781.53;4901707;29;20040;-74
2022/05/07 04:14:09;;;;;;;20.52;11.43;;;;;;;12.57;100.00;101783.19;4926786;29;20048;-74
2022/05/07 04:16:55;;;;;;;19.80;11.88;;;;;;;12.46;100.00;101783.28;4902883;29;20390;-73
2022/05/07 04:19:41;;;;;;;23.55;10.70;;;;;;;12.91;100.00;101780.22;4901636;29;20032;-75
2022/05/07 04:22:26;;;;;;;18.42;9.50;;;;;;;12.70;100.00;101783.06;4914864;29;20025;-74
2022/05/07 04:25:13;;;;;;;13.02;8.65;;;;;;;12.78;100.00;101783.88;4901282;29;20502;-74
2022/05/07 04:27:59;;;;;;;13.73;8.93;;;;;;;12.81;100.00;101786.47;4900602;29;20124;-73
2022/05/07 04:30:44;;;;;;;17.85;9.18;;;;;;;13.05;100.00;101788.91;4900815;29;20024;-73
2022/05/07 04:33:31;;;;;;;15.13;9.23;;;;;;;13.03;100.00;101792.44;4901113;29;20040;-74
2022/05/07 04:36:16;;;;;;;15.10;8.73;;;;;;;12.94;100.00;101790.72;4926646;29;20033;-74
2022/05/07 04:39:02;;;;;;;18.45;9.90;;;;;;;13.05;100.00;101794.16;4901524;29;20033;-75
2022/05/07 04:41:48;;;;;;;15.18;9.20;;;;;;;13.33;100.00;101795.59;4901200;29;20485;-74
2022/05/07 04:44:34;;;;;;;16.83;8.10;;;;;;;13.12;100.00;101792.34;4899777;29;20040;-74
2022/05/07 04:47:19;;;;;;;12.60;8.38;;;;;;;13.37;100.00;101797.31;4927352;29;20119;-73
2022/05/07 04:50:05;;;;;;;16.10;8.57;;;;;;;13.25;100.00;101794.81;4900522;29;20450;-74
2022/05/07 04:52:51;;;;;;;15.07;8.52;;;;;;;13.42;100.00;101808.66;4900115;29;20029;-73
2022/05/07 04:55:37;;;;;;;14.30;8.32;;;;;;;13.69;100.00;101805.69;4926088;29;20125;-74
2022/05/07 04:58:23;;;;;;;13.93;8.70;;;;;;;13.80;100.00;101816.97;4900456;29;20021;-73
2022/05/07 05:01:08;;;;;;;13.77;8.43;;;;;;;13.91;100.00;101817.66;4899268;29;20084;-73
2022/05/07 05:03:54;;;;;;;17.65;8.10;;;;;;;13.84;100.00;101821.31;4900494;29;20458;-74
2022/05/07 05:06:40;;;;;;;15.43;9.02;;;;;;;13.02;100.00;101825.75;4900719;29;20401;-74
2022/05/07 05:09:26;;;;;;;12.60;9.25;;;;;;;12.80;100.00;101823.31;4900600;29;20028;-74
2022/05/07 05:12:17;;;;;;;15.75;9.23;;;;;;;13.23;100.00;101822.91;4912652;29;20068;-74
2022/05/07 05:15:04;;;;;;;12.98;9.20;;;;;;;13.20;100.00;101822.97;4899750;29;20576;-74
2022/05/07 05:17:50;;;;;;;14.70;9.85;;;;;;;13.20;100.00;101825.59;4900957;29;20047;-74
2022/05/07 05:20:35;;;;;;;12.85;9.88;;;;;;;13.37;100.00;101820.13;4912339;29;20068;-74
2022/05/07 05:23:22;;;;;;;15.55;9.60;;;;;;;13.35;100.00;101824.56;4900114;29;20025;-74
2022/05/07 05:26:08;;;;;;;16.13;9.13;;;;;;;13.92;100.00;101824.72;4900218;29;20047;-73
2022/05/07 05:28:57;;;;;;;13.27;9.50;;;;;;;14.37;100.00;101821.44;4900625;29;20036;-73
2022/05/07 05:31:43;;;;;;;16.77;9.93;;;;;;;14.58;100.00;101830.75;4900317;29;20056;-74
2022/05/07 05:34:29;;;;;;;16.90;9.77;;;;;;;14.58;100.00;101828.13;4900302;29;20036;-74
2022/05/07 05:37:19;;;;;;;16.73;9.32;;;;;;;14.92;100.00;101820.50;4912393;29;20036;-73
2022/05/07 05:40:05;;;;;;;13.25;8.65;;;;;;;15.16;100.00;101823.59;4899579;29;20426;-74
2022/05/07 05:42:51;;;;;;;16.15;8.65;;;;;;;14.96;100.00;101824.84;4900044;29;20115;-74
2022/05/07 05:45:37;;;;;;;13.35;7.95;;;;;;;15.47;100.00;101824.75;4900600;29;20034;-74
2022/05/07 05:48:24;;;;;;;15.73;8.25;;;;;;;15.42;100.00;101826.63;4899570;29;20048;-73
2022/05/07 05:51:09;;;;;;;13.27;8.00;;;;;;;15.52;100.00;101825.56;4900747;29;20029;-74
2022/05/07 05:53:55;;;;;;;11.85;7.65;;;;;;;15.60;100.00;101825.38;4899709;29;20111;-74
2022/05/07 05:56:41;;;;;;;11.20;7.47;;;;;;;16.01;100.00;101823.63;4899411;29;20028;-74
2022/05/07 05:59:27;;;;;;;13.20;7.57;;;;;;;16.24;97.46;101823.94;4924800;29;20438;-74
2022/05/07 06:02:15;;;;;;;13.85;6.88;;;;;;;16.18;96.32;101823.22;4899174;29;20486;-73
2022/05/07 06:05:01;;;;;;;13.93;7.43;;;;;;;16.46;94.98;101822.59;4899862;29;20411;-73
2022/05/07 06:07:47;;;;;;;12.18;7.10;;;;;;;17.06;90.61;101831.63;4898719;29;20347;-73
2022/05/07 06:10:32;;;;;;;11.07;7.10;;;;;;;16.86;92.85;101827.75;4911731;29;20339;-74
2022/05/07 06:13:19;;;;;;;17.65;6.97;;;;;;;16.76;90.35;101835.06;4898324;29;20020;-73
2022/05/07 06:16:05;;;;;;;11.30;7.25;;;;;;;16.74;90.60;101828.06;4899699;29;20037;-74
2022/05/07 06:18:50;;;;;;;10.15;6.47;;;;;;;17.28;80.87;101831.94;4898403;29;20040;-74
2022/05/07 06:21:36;;;;;;;8.70;5.50;;;;;;;16.78;80.32;101827.97;4899707;29;20426;-73
2022/05/07 06:27:33;;;;;;;20.90;6.70;;;;;;;17.31;77.44;101840.66;4898843;29;20442;-74
2022/05/07 06:30:19;;;;;;;9.05;5.50;;;;;;;17.57;76.83;101840.81;4897703;29;20024;-75
2022/05/07 06:33:05;;;;;;;10.07;5.45;;;;;;;17.54;75.82;101842.69;4898880;29;20032;-75
2022/05/07 06:35:51;;;;;;;14.77;6.00;;;;;;;17.68;77.34;101853.81;4899029;29;20456;-73
2022/05/07 06:38:37;;;;;;;11.10;6.38;;;;;;;17.86;81.61;101846.19;4910522;29;20120;-74
2022/05/07 06:41:23;;;;;;;15.43;6.93;;;;;;;17.86;87.91;101851.47;4899542;29;20362;-74
2022/05/07 06:44:08;;;;;;;13.02;6.75;;;;;;;17.37;87.90;101845.78;4898468;29;20100;-74
2022/05/07 06:46:56;;;;;;;14.65;6.57;;;;;;;17.99;87.63;101836.06;4898077;29;20377;-73
2022/05/07 06:49:45;;;;;;;10.63;6.45;;;;;;;17.89;80.84;101835.47;4910368;29;20450;-73
2022/05/07 06:52:31;;;;;;;9.98;6.05;;;;;;;17.57;89.35;101843.47;4898694;29;20032;-74
2022/05/07 06:55:18;;;;;;;13.82;6.50;;;;;;;18.22;86.65;101836.22;4897548;29;20064;-74
2022/05/07 06:58:05;;;;;;;11.68;6.68;;;;;;;18.19;87.86;101837.19;4898282;29;20430;-74
2022/05/07 07:00:51;;;;;;;12.15;6.65;;;;;;;17.78;84.61;101847.31;4899618;29;20036;-74
2022/05/07 07:03:37;;;;;;;7.93;4.30;;;;;;;18.31;62.66;101841.25;4898650;29;20502;-74
2022/05/07 07:06:23;;;;;;;7.72;4.20;;;;;;;18.26;52.51;101841.41;4912066;29;20124;-74
2022/05/07 07:09:09;;;;;;;6.93;4.07;;;;;;;18.52;49.50;101852.09;4898917;29;20107;-74
2022/05/07 07:11:54;;;;;;;10.75;4.78;;;;;;;18.78;50.25;101857.41;4899508;29;20422;-73
2022/05/07 07:14:40;;;;;;;5.78;3.72;;;;;;;19.35;46.56;101845.75;4898266;29;20374;-73
2022/05/07 07:17:27;;;;;;;8.63;4.25;;;;;;;18.87;43.39;101859.78;4898643;29;20431;-73
2022/05/07 07:20:14;;;;;;;14.02;4.88;;;;;;;19.17;43.63;101853.41;4898840;29;20458;-73
2022/05/07 07:23:00;;;;;;;9.10;4.60;;;;;;;19.50;43.06;101853.16;4912098;29;20037;-74
2022/05/07 07:25:45;;;;;;;9.00;4.60;;;;;;;19.81;41.92;101849.31;4900987;29;20029;-74
2022/05/07 07:28:31;;;;;;;6.90;4.55;;;;;;;19.60;40.85;101851.94;4902569;29;20033;-74
2022/05/07 07:31:17;;;;;;;8.23;4.70;;;;;;;19.55;40.96;101849.44;4901620;29;20032;-73
2022/05/07 07:34:03;;;;;;;9.45;4.70;;;;;;;19.68;42.03;101850.69;4902260;29;20445;-74
2022/05/07 07:36:52;;;;;;;7.70;4.35;;;;;;;19.50;41.53;101848.72;4901894;29;20534;-73
2022/05/07 07:39:38;;;;;;;7.70;4.40;;;;;;;20.07;41.32;101849.22;4903009;29;20032;-74
2022/05/07 07:42:24;;;;;;;13.88;6.90;;;;;;;20.13;41.43;101854.31;4902248;29;20339;-75
2022/05/07 07:48:15;;;;;;;7.22;4.60;;;;;;;21.39;40.59;101856.16;4901563;29;20040;-73
2022/05/07 07:51:01;;;;;;;7.80;4.43;;;;;;;21.08;39.39;101843.31;4914673;29;20088;-73
2022/05/07 07:53:47;;;;;;;14.15;5.18;;;;;;;21.37;40.36;101850.91;4901675;29;20414;-73
2022/05/07 07:56:33;;;;;;;9.23;5.30;;;;;;;20.68;39.73;101861.84;4901565;29;20029;-74
2022/05/07 07:59:18;;;;;;;10.32;5.07;;;;;;;20.58;39.50;101855.16;4901679;29;20075;-73
2022/05/07 08:02:04;;;;;;;8.98;4.75;;;;;;;21.25;39.15;101850.56;4901277;29;20024;-74
2022/05/07 08:04:54;;;;;;;8.75;4.55;;;;;;;21.06;38.97;101847.81;4901572;29;20039;-74
2022/05/07 08:13:53;;;;;;;8.65;5.00;;;;;;;20.63;38.87;101845.22;4900892;29;20041;-74
2022/05/07 08:16:40;;;;;;;9.45;4.88;;;;;;;20.32;38.13;101838.50;4901585;29;20110;-74
2022/05/07 08:19:27;;;;;;;10.13;4.80;;;;;;;20.49;38.57;101830.72;4901572;29;20536;-74
2022/05/07 08:22:14;;;;;;;6.97;4.25;;;;;;;20.47;39.27;101838.78;4902462;29;20047;-74
2022/05/07 08:25:01;;;;;;;9.45;5.15;;;;;;;20.72;39.38;101834.16;4902413;29;20100;-74
2022/05/07 08:27:46;;;;;;;7.38;4.50;;;;;;;21.57;37.84;101842.88;4913757;29;20032;-73
2022/05/07 08:30:32;;;;;;;11.63;4.45;;;;;;;21.18;38.54;101833.97;4901098;29;20060;-74
2022/05/07 08:33:18;;;;;;;11.02;4.82;;;;;;;20.64;39.73;101832.72;4900913;29;20044;-73
2022/05/07 08:36:04;;;;;;;7.82;4.68;;;;;;;20.29;39.37;101833.31;4900689;29;20180;-74
2022/05/07 08:38:49;;;;;;;11.77;5.10;;;;;;;20.81;38.84;101841.75;4901002;29;20032;-73
2022/05/07 08:41:35;;;;;;;7.38;4.53;;;;;;;20.57;39.03;101840.09;4901008;29;20025;-73
2022/05/07 08:44:22;;;;;;;8.05;4.65;;;;;;;20.72;39.25;101838.59;4899240;29;20028;-73
2022/05/07 08:47:08;;;;;;;8.82;4.68;;;;;;;20.86;39.52;101846.91;4900937;29;20033;-73
2022/05/07 08:49:54;;;;;;;8.57;4.72;;;;;;;21.27;40.01;101843.38;4900424;29;20043;-73
2022/05/07 08:52:42;;;;;;;7.22;4.10;;;;;;;20.82;39.96;101840.81;4901602;29;20036;-74
2022/05/07 08:55:28;;;;;;;11.98;4.70;;;;;;;20.87;39.79;101844.19;4926384;29;20055;-74
2022/05/07 08:58:14;;;;;;;7.82;4.25;;;;;;;21.45;40.03;101848.75;4928616;29;20032;-74
2022/05/07 09:01:00;;;;;;;8.68;4.30;;;;;;;21.35;37.79;101836.78;4900052;29;20025;-73
2022/05/07 09:03:47;;;;;;;9.35;3.80;;;;;;;21.48;37.71;101842.44;4899699;29;20072;-74
2022/05/07 09:06:33;;;;;;;9.07;3.75;;;;;;;21.80;37.36;101845.41;4900070;29;20476;-74
2022/05/07 09:09:19;;;;;;;7.10;3.80;;;;;;;21.35;37.04;101844.78;4900327;29;20112;-75
2022/05/07 09:12:05;;;;;;;9.32;3.70;;;;;;;21.74;36.79;101851.00;4899987;29;20040;-73
2022/05/07 09:14:51;;;;;;;8.05;3.65;;;;;;;21.48;37.84;101840.63;4900082;29;20048;-74
2022/05/07 09:17:38;;;;;;;6.75;3.95;;;;;;;21.18;37.75;101843.78;4900595;29;20068;-73
2022/05/07 09:20:26;;;;;;;8.02;4.10;;;;;;;21.10;38.01;101840.59;4911792;29;20073;-74
2022/05/07 09:23:11;;;;;;;10.82;6.05;;;;;;;20.86;38.44;101838.91;4900616;29;20028;-73
2022/05/07 09:25:57;;;;;;;15.65;7.10;;;;;;;20.97;38.92;101839.38;4899197;29;20033;-73
2022/05/07 09:28:43;;;;;;;8.18;5.05;;;;;;;21.02;38.60;101840.88;4900014;29;20051;-74
2022/05/07 09:31:31;;;;;;;9.85;4.03;;;;;;;21.43;38.37;101839.09;4899825;29;20405;-74
2022/05/07 09:37:23;;;;;;;8.82;4.07;;;;;;;22.13;37.44;101829.63;4899229;29;20210;-73
2022/05/07 09:40:11;;;;;;;8.57;3.80;;;;;;;22.07;38.05;101837.94;4899328;29;20407;-74
2022/05/07 09:43:00;;;;;;;8.98;3.90;;;;;;;21.73;38.71;101837.75;4900858;29;20032;-73
2022/05/07 09:45:46;;;;;;;9.38;3.67;;;;;;;21.92;38.38;101828.84;4900143;29;20513;-73
2022/05/07 09:48:34;;;;;;;5.03;3.40;;;;;;;21.57;38.97;101829.53;4899415;29;20454;-75
2022/05/07 09:51:20;;;;;;;6.47;3.72;;;;;;;21.51;37.70;101835.16;4900162;29;20028;-74
2022/05/07 10:00:19;;;;;;;7.22;3.47;;;;;;;22.64;38.26;101801.28;4900223;29;20028;-73
2022/05/07 10:03:22;;;;;;;12.68;3.75;;;;;;;22.55;38.68;101806.22;4899114;29;20029;-73
2022/05/07 10:06:30;;;;;;;6.80;3.40;;;;;;;21.97;38.97;101805.47;4898688;29;20032;-73
2022/05/07 10:09:23;;;;;;;5.85;3.45;;;;;;;22.06;39.35;101802.34;4899331;29;20398;-73
2022/05/07 10:12:16;;;;;;;6.50;3.78;;;;;;;22.21;39.58;101809.63;4899713;29;20120;-74
2022/05/07 10:15:09;;;;;;;8.98;3.67;;;;;;;22.68;38.93;101804.66;4898299;29;20390;-74
2022/05/07 10:18:02;;;;;;;13.13;3.95;;;;;;;21.99;39.34;101803.56;4899208;29;20048;-73
2022/05/07 10:20:49;;;;;;;9.27;3.65;;;;;;;22.70;39.33;101795.63;4900171;29;20026;-74
2022/05/07 10:23:38;;;;;;;9.10;3.95;;;;;;;22.72;38.92;101784.84;4900429;29;20036;-72
2022/05/07 10:26:41;;;;;;;6.30;4.18;;;;;;;22.83;39.63;101782.53;4898735;29;20029;-73
2022/05/07 10:29:27;;;;;;;7.43;3.67;;;;;;;23.00;38.53;101777.16;4898721;29;20454;-73
2022/05/07 10:32:18;;;;;;;7.05;3.85;;;;;;;22.08;37.30;101778.25;4898245;29;20033;-73
2022/05/07 10:35:04;;;;;;;7.70;4.15;;;;;;;21.98;37.45;101779.66;4898936;29;20036;-74
2022/05/07 10:37:50;;;;;;;7.72;3.83;;;;;;;22.17;37.41;101776.00;4898834;29;20064;-74
2022/05/07 10:40:36;;;;;;;7.93;4.13;;;;;;;22.00;37.58;101777.75;4898935;29;20087;-74
2022/05/07 10:43:34;;;;;;;11.25;3.85;;;;;;;22.55;37.48;101771.50;4897858;29;20446;-73
2022/05/07 10:46:21;;;;;;;10.73;4.25;;;;;;;23.02;36.86;101773.47;4900073;29;20036;-74
2022/05/07 10:49:08;;;;;;;5.85;3.88;;;;;;;22.82;36.71;101773.63;4898951;29;20032;-74
2022/05/07 10:52:03;;;;;;;5.30;3.72;;;;;;;22.72;36.55;101758.13;4898964;29;20351;-74
2022/05/07 10:54:49;;;;;;;8.93;4.25;;;;;;;23.14;36.46;101751.44;4898125;29;20032;-74
2022/05/07 10:57:43;;;;;;;4.75;3.90;;;;;;;23.42;36.15;101748.16;4899157;29;20036;-74
2022/05/07 11:00:29;;;;;;;6.60;3.60;;;;;;;23.09;36.24;101744.59;4923720;29;20036;-74
2022/05/07 11:03:24;;;;;;;6.57;3.35;;;;;;;23.19;35.58;101754.72;4898562;29;20044;-74
2022/05/07 11:06:10;;;;;;;7.07;3.20;;;;;;;23.01;36.12;101749.47;4911534;29;20036;-74
2022/05/07 11:08:56;;;;;;;6.88;3.83;;;;;;;23.39;36.32;101751.03;4898809;29;20024;-75
2022/05/07 11:11:46;;;;;;;6.13;3.83;;;;;;;23.39;36.34;101743.84;4923631;29;20036;-75
2022/05/07 11:14:35;;;;;;;7.32;3.42;;;;;;;23.39;36.24;101749.19;4923788;29;20095;-75
2022/05/07 11:17:32;;;;;;;6.07;3.50;;;;;;;23.82;36.06;101745.03;4899333;29;20441;-75
2022/05/07 11:20:29;;;;;;;7.05;3.55;;;;;;;23.95;35.64;101740.72;4899113;29;20040;-76
2022/05/07 11:23:15;;;;;;;7.65;3.45;;;;;;;24.23;35.34;101746.25;4897417;29;20036;-75
2022/05/07 11:26:12;;;;;;;5.78;3.63;;;;;;;24.31;35.27;101732.44;4898092;29;20032;-76
2022/05/07 11:28:57;;;;;;;8.48;5.22;;;;;;;24.43;34.94;101732.56;4898514;29;20056;-77
2022/05/07 11:31:43;;;;;;;5.93;3.03;;;;;;;23.63;34.94;101722.06;4898261;29;20029;-76
2022/05/07 11:34:31;;;;;;;7.00;2.90;;;;;;;23.83;34.79;101716.47;4898649;29;20073;-76
2022/05/07 11:37:21;;;;;;;7.00;3.17;;;;;;;24.08;34.87;101717.69;4923859;29;20100;-77
2022/05/07 11:40:09;;;;;;;6.60;3.05;;;;;;;24.28;34.10;101719.19;4924679;29;20095;-76
2022/05/07 11:46:06;;;;;;;5.53;3.00;;;;;;;24.60;34.38;101715.50;4899074;29;20107;-75
2022/05/07 11:48:51;;;;;;;10.57;3.03;;;;;;;23.59;35.58;101710.66;4907707;29;20043;-73
2022/05/07 11:51:37;;;;;;;5.72;3.08;;;;;;;24.49;35.09;101704.53;4911515;29;20052;-75
2022/05/07 11:54:23;;;;;;;7.75;3.22;;;;;;;24.27;34.78;101704.09;4910482;29;20029;-76
2022/05/07 11:57:08;;;;;;;7.43;3.05;;;;;;;24.92;34.76;101701.03;4909195;29;20047;-75
2022/05/07 11:59:55;;;;;;;4.97;2.97;;;;;;;24.87;34.65;101700.47;4901096;29;20052;-75
2022/05/07 12:02:51;;;;;;;5.00;3.20;;;;;;;23.59;36.26;101696.41;4914293;29;20024;-73
2022/05/07 12:05:42;;;;;;;5.38;3.30;;;;;;;23.72;37.28;101692.09;4915085;29;20016;-76
2022/05/07 12:08:32;;;;;;;5.93;3.45;;;;;;;24.26;36.17;101675.59;4912976;29;20088;-75
2022/05/07 12:11:18;;;;;;;6.53;3.72;;;;;;;23.85;36.34;101666.34;4915747;29;20032;-75
2022/05/07 12:14:03;;;;;;;8.88;5.05;;;;;;;24.24;37.18;101673.00;4915022;29;20055;-76
2022/05/07 12:19:54;;;;;;;10.15;3.78;;;;;;;24.36;36.97;101666.03;4909451;29;20029;-75
2022/05/07 12:31:57;;;;;;;7.32;3.80;;;;;;;24.40;36.07;101657.75;4912618;29;20095;-75
2022/05/07 12:34:43;;;;;;;9.10;3.30;;;;;;;24.45;36.10;101654.75;4910029;29;20043;-76
2022/05/07 12:37:29;;;;;;;6.47;3.13;;;;;;;24.97;35.74;101637.25;4907178;29;20068;-76
2022/05/07 12:40:15;;;;;;;6.63;3.50;;;;;;;24.56;36.33;101647.81;4909495;29;20044;-75
2022/05/07 12:43:01;;;;;;;5.85;3.38;;;;;;;24.57;36.74;101640.63;4910328;29;20028;-76
2022/05/07 12:45:49;;;;;;;6.53;3.13;;;;;;;24.81;36.78;101642.72;4909599;29;20119;-75
2022/05/07 12:48:35;;;;;;;8.90;3.15;;;;;;;25.14;36.98;101642.41;4905875;29;20028;-75
2022/05/07 12:51:20;;;;;;;5.28;3.70;;;;;;;25.08;36.80;101643.66;4921848;29;20029;-76
2022/05/07 12:54:06;;;;;;;4.10;3.00;;;;;;;25.15;36.87;101636.13;4914788;29;20032;-75
2022/05/07 12:56:53;;;;;;;19.45;11.93;;;;;;;24.99;37.27;101646.09;4914998;29;20123;-75
2022/05/07 12:59:38;;;;;;;11.60;9.25;;;;;;;25.21;36.17;101635.72;4912712;29;20032;-76
2022/05/07 13:02:24;;;;;;;3.83;2.75;;;;;;;25.12;35.81;101630.94;4906013;29;20038;-75
2022/05/07 13:05:10;;;;;;;4.82;2.90;;;;;;;25.08;36.30;101629.41;4913243;29;20024;-74
2022/05/07 13:07:56;;;;;;;5.88;3.28;;;;;;;24.67;35.60;101636.47;4904312;29;20040;-76
2022/05/07 13:10:43;;;;;;;5.30;3.20;;;;;;;24.53;36.05;101634.59;4906685;29;20040;-74
2022/05/07 13:13:29;;;;;;;8.07;3.00;;;;;;;24.87;35.56;101614.66;4902874;29;20434;-75
2022/05/07 13:16:15;;;;;;;10.20;2.80;;;;;;;24.65;35.91;101619.63;4930011;29;20033;-75
2022/05/07 13:19:01;;;;;;;6.80;2.90;;;;;;;24.52;35.87;101627.53;4901887;29;20060;-74
2022/05/07 13:21:46;;;;;;;6.55;2.72;;;;;;;24.31;35.40;101618.09;4902137;29;20119;-74
2022/05/07 13:24:32;;;;;;;4.57;2.60;;;;;;;24.44;35.55;101611.06;4900507;29;20033;-74
2022/05/07 13:27:18;;;;;;;3.88;2.60;;;;;;;24.91;34.93;101609.00;4926466;29;20085;-75
2022/05/07 13:30:04;;;;;;;4.53;2.47;;;;;;;24.69;35.06;101608.63;4900769;29;20028;-75
2022/05/07 13:32:51;;;;;;;6.57;2.90;;;;;;;25.05;34.50;101609.00;4900591;29;20051;-75
2022/05/07 13:35:36;;;;;;;4.32;2.58;;;;;;;24.09;35.67;101616.78;4902980;29;20091;-74